Time;durP1;ratioP1;P1;durP2;ratioP2;P2;SDS_P1;SDS_P2;PMS_P1;PMS_P2;Temp;Humidity;BMP_temperature;BMP_pressure;BME280_temperature;BME280_humidity;BME280_pressure;Samples;Min_cycle;Max_cycle;Signal;HPM_P1;HPM_P2
2021/03/20 00:02:43;;;;;;;17.40;7.90;;;0.80;99.90;;;;;;20849912;28;20040;-77
2021/03/20 00:12:45;;;;;;;15.98;8.38;;;0.60;99.90;;;;;;20828907;28;20508;-76
2021/03/20 00:22:46;;;;;;;14.98;7.07;;;0.60;99.90;;;;;;20829608;28;20033;-78
2021/03/20 00:32:47;;;;;;;18.80;7.53;;;0.60;99.90;;;;;;20777682;28;20037;-77
2021/03/20 00:42:48;;;;;;;20.77;8.43;;;0.40;99.90;;;;;;20864793;23;20075;-76
2021/03/20 00:52:49;;;;;;;17.45;8.60;;;0.30;99.90;;;;;;20885164;28;20032;-76
2021/03/20 01:02:50;;;;;;;15.55;7.93;;;0.20;99.90;;;;;;20884308;28;20039;-76
2021/03/20 01:12:50;;;;;;;24.95;8.95;;;0.20;99.90;;;;;;20883351;28;20175;-76
2021/03/20 01:22:51;;;;;;;12.32;7.00;;;0.10;99.90;;;;;;20875653;28;20499;-77
2021/03/20 01:32:52;;;;;;;17.67;7.97;;;-0.10;99.90;;;;;;20902564;28;20025;-77
2021/03/20 01:42:53;;;;;;;17.02;8.02;;;-0.10;99.90;;;;;;20873648;28;20502;-77
2021/03/20 01:53:01;;;;;;;18.15;8.90;;;-0.10;99.90;;;;;;20875151;28;20037;-77
2021/03/20 02:03:15;;;;;;;15.98;7.50;;;-0.20;99.90;;;;;;20874045;28;20060;-77
2021/03/20 02:13:22;;;;;;;15.82;7.28;;;-0.20;99.90;;;;;;20913845;28;20513;-77
2021/03/20 02:24:00;;;;;;;17.48;7.93;;;-0.30;99.90;;;;;;20899003;28;20526;-77
2021/03/20 02:34:16;;;;;;;14.52;7.55;;;-0.20;99.90;;;;;;20915563;28;20031;-77
2021/03/20 02:44:31;;;;;;;15.30;6.85;;;-0.30;99.90;;;;;;20911409;28;20056;-77
2021/03/20 02:54:49;;;;;;;15.60;6.88;;;-0.50;99.90;;;;;;20898218;28;20033;-76
2021/03/20 03:05:10;;;;;;;13.82;6.78;;;-0.80;99.90;;;;;;20898154;28;20403;-77
2021/03/20 03:15:18;;;;;;;16.70;6.87;;;-0.80;99.90;;;;;;20909752;28;20037;-77
2021/03/20 03:25:24;;;;;;;16.35;7.18;;;-0.70;99.90;;;;;;20883353;28;20082;-77
2021/03/20 03:35:38;;;;;;;13.98;6.93;;;-0.90;99.90;;;;;;20848269;28;20057;-77
2021/03/20 03:45:41;;;;;;;14.90;7.35;;;-1.20;99.90;;;;;;20846833;28;20044;-77
2021/03/20 03:55:42;;;;;;;13.05;7.47;;;-1.40;99.90;;;;;;20869573;28;20087;-77
2021/03/20 04:06:10;;;;;;;15.27;7.43;;;-1.70;99.90;;;;;;20852391;28;20420;-77
2021/03/20 04:16:26;;;;;;;18.52;7.90;;;-1.80;99.90;;;;;;20887987;28;20025;-77
2021/03/20 04:26:52;;;;;;;15.23;7.43;;;-1.70;99.90;;;;;;20908087;28;20032;-77
2021/03/20 04:36:59;;;;;;;16.13;7.68;;;-1.60;99.90;;;;;;20883731;28;20083;-77
2021/03/20 04:47:00;;;;;;;16.38;7.78;;;-1.80;99.90;;;;;;20880052;28;20033;-77
2021/03/20 04:57:10;;;;;;;17.00;7.38;;;-2.00;99.90;;;;;;20848719;28;20033;-77
2021/03/20 05:07:12;;;;;;;17.47;7.97;;;-2.20;99.90;;;;;;20829890;28;20021;-77
2021/03/20 05:17:16;;;;;;;20.80;9.57;;;-2.20;99.90;;;;;;20864814;28;20375;-77
2021/03/20 05:27:23;;;;;;;24.70;9.77;;;-2.20;99.90;;;;;;20875196;28;20025;-77
2021/03/20 05:37:30;;;;;;;20.33;9.77;;;-2.40;99.90;;;;;;20869342;28;20111;-76
2021/03/20 05:47:46;;;;;;;20.05;9.35;;;-2.50;99.90;;;;;;20854539;28;20514;-77
2021/03/20 05:57:58;;;;;;;25.92;10.05;;;-2.40;99.90;;;;;;20880076;28;20029;-77
2021/03/20 06:08:17;;;;;;;25.60;11.57;;;-2.40;99.90;;;;;;20863442;28;20056;-77
2021/03/20 06:19:09;;;;;;;25.23;11.65;;;-1.70;99.90;;;;;;20890615;28;20148;-76
2021/03/20 06:29:16;;;;;;;23.50;10.87;;;-1.30;99.90;;;;;;20891305;28;20475;-77
2021/03/20 06:49:32;;;;;;;21.40;9.50;;;-0.10;99.90;;;;;;20959777;28;20065;-74
2021/03/20 06:59:33;;;;;;;28.60;12.45;;;0.40;99.90;;;;;;20872340;28;20650;-74
2021/03/20 07:09:37;;;;;;;18.55;9.95;;;0.80;99.90;;;;;;20859883;28;20048;-77
2021/03/20 07:20:20;;;;;;;18.17;8.10;;;1.30;99.90;;;;;;20831241;28;20106;-79
2021/03/20 07:30:33;;;;;;;11.77;6.85;;;2.30;99.90;;;;;;20796554;28;20046;-78
2021/03/20 07:40:34;;;;;;;40.42;23.48;;;3.40;99.90;;;;;;20829593;28;20039;-80
2021/03/20 07:50:46;;;;;;;14.65;7.75;;;4.30;99.90;;;;;;20829031;28;20029;-77
2021/03/20 08:00:52;;;;;;;47.05;15.68;;;3.40;99.90;;;;;;20828226;28;20029;-78
2021/03/20 08:10:56;;;;;;;26.58;10.55;;;3.00;99.90;;;;;;20810005;28;20495;-78
2021/03/20 08:21:08;;;;;;;25.00;10.55;;;2.90;99.90;;;;;;20827176;28;20039;-78
2021/03/20 08:31:15;;;;;;;15.75;8.20;;;3.30;99.90;;;;;;20810539;28;20033;-80
2021/03/20 08:41:28;;;;;;;23.75;10.02;;;3.10;99.90;;;;;;20801947;28;20395;-78
2021/03/20 08:51:56;;;;;;;12.05;6.10;;;3.40;99.90;;;;;;20792818;28;20122;-79
2021/03/20 09:02:04;;;;;;;10.45;5.72;;;3.30;99.90;;;;;;20840600;28;20037;-80
2021/03/20 09:12:33;;;;;;;76.28;19.27;;;2.40;99.90;;;;;;20845908;28;20407;-80
2021/03/20 09:22:34;;;;;;;7.38;4.53;;;2.50;99.90;;;;;;20842675;28;20045;-79
2021/03/20 09:32:46;;;;;;;10.77;5.25;;;2.60;99.90;;;;;;20828548;28;20527;-80
2021/03/20 09:42:47;;;;;;;9.90;5.03;;;2.30;99.90;;;;;;20871515;28;20040;-79
2021/03/20 09:53:07;;;;;;;8.95;4.40;;;2.00;99.90;;;;;;20877270;28;20083;-78
2021/03/20 10:03:09;;;;;;;11.98;6.43;;;2.00;99.90;;;;;;20826449;28;20072;-79
2021/03/20 10:13:23;;;;;;;11.07;5.57;;;2.00;99.90;;;;;;20846615;28;20037;-77
2021/03/20 10:23:52;;;;;;;10.13;5.72;;;2.30;99.90;;;;;;20821308;28;20041;-78
2021/03/20 10:34:14;;;;;;;10.30;5.57;;;3.70;99.90;;;;;;20793360;28;20033;-78
2021/03/20 10:44:29;;;;;;;10.30;4.80;;;6.20;99.90;;;;;;20765491;28;20030;-78
2021/03/20 10:54:33;;;;;;;8.70;4.47;;;7.50;99.90;;;;;;20776719;28;20060;-78
2021/03/20 11:04:34;;;;;;;10.88;4.85;;;5.80;99.90;;;;;;20859161;28;20512;-79
2021/03/20 11:14:51;;;;;;;9.03;4.50;;;4.80;99.90;;;;;;20904553;28;20110;-77
2021/03/20 11:24:55;;;;;;;13.35;5.40;;;4.10;99.90;;;;;;20893115;28;20460;-78
2021/03/20 11:35:35;;;;;;;11.70;4.82;;;4.60;99.90;;;;;;20896477;28;20028;-77
2021/03/20 11:45:40;;;;;;;9.38;4.47;;;7.60;99.90;;;;;;20874453;28;20043;-78
2021/03/20 11:55:42;;;;;;;13.85;4.65;;;7.80;99.90;;;;;;20919852;28;20047;-80
2021/03/20 12:05:42;;;;;;;9.75;6.07;;;8.00;99.90;;;;;;20936548;28;20121;-80
2021/03/20 12:15:53;;;;;;;7.80;5.00;;;7.80;99.90;;;;;;20910232;28;20037;-80
2021/03/20 12:25:57;;;;;;;5.80;4.03;;;7.50;99.90;;;;;;20899809;28;20025;-77
2021/03/20 12:35:58;;;;;;;79.43;26.35;;;8.50;99.90;;;;;;20848974;28;20036;-78
2021/03/20 12:46:02;;;;;;;15.70;7.53;;;7.90;99.30;;;;;;20897373;23;20053;-77
2021/03/20 12:56:03;;;;;;;7.72;4.55;;;7.00;99.90;;;;;;20849875;28;20051;-77
2021/03/20 13:06:05;;;;;;;9.03;4.93;;;6.60;99.90;;;;;;20863149;28;20028;-77
2021/03/20 13:16:05;;;;;;;6.82;4.07;;;8.40;99.90;;;;;;20884417;28;20033;-78
2021/03/20 13:26:06;;;;;;;7.77;4.83;;;7.10;99.90;;;;;;20885880;28;20032;-78
2021/03/20 13:36:08;;;;;;;11.00;6.10;;;7.20;99.90;;;;;;20867748;28;20503;-77
2021/03/20 13:46:10;;;;;;;6.47;3.55;;;8.20;96.80;;;;;;20875105;28;20288;-77
2021/03/20 13:56:17;;;;;;;7.63;3.73;;;7.90;96.40;;;;;;20883379;28;20125;-77
2021/03/20 14:06:21;;;;;;;6.45;3.60;;;8.50;95.50;;;;;;20899480;28;20491;-78
2021/03/20 14:16:22;;;;;;;6.05;3.83;;;7.80;99.10;;;;;;20872792;28;20041;-78
2021/03/20 14:26:23;;;;;;;6.37;3.93;;;7.70;95.00;;;;;;20853079;28;20033;-78
2021/03/20 14:36:24;;;;;;;11.47;5.13;;;8.30;91.30;;;;;;20877396;28;20499;-77
2021/03/20 14:46:25;;;;;;;6.57;4.33;;;8.10;92.30;;;;;;20821080;28;20047;-77
2021/03/20 14:56:26;;;;;;;6.27;3.37;;;8.50;90.60;;;;;;20814410;28;20025;-77
2021/03/20 15:06:27;;;;;;;8.47;3.40;;;7.80;89.70;;;;;;20811073;28;20052;-77
2021/03/20 15:16:27;;;;;;;6.17;3.83;;;8.10;90.20;;;;;;20852657;28;20040;-78
2021/03/20 15:26:29;;;;;;;9.27;3.50;;;7.80;91.00;;;;;;20864223;28;20484;-78
2021/03/20 15:36:29;;;;;;;9.47;3.80;;;7.70;88.80;;;;;;20875085;28;20052;-76
2021/03/20 15:46:30;;;;;;;4.70;2.87;;;7.70;90.90;;;;;;20862576;28;20082;-77
2021/03/20 15:56:31;;;;;;;9.40;3.90;;;7.10;88.40;;;;;;20866008;28;20033;-78
2021/03/20 16:06:32;;;;;;;4.90;2.93;;;7.90;84.20;;;;;;20866440;28;20029;-78
2021/03/20 16:16:33;;;;;;;8.07;3.87;;;6.60;87.30;;;;;;20837858;28;20137;-78
2021/03/20 16:26:34;;;;;;;7.63;2.17;;;6.50;88.20;;;;;;20841558;28;20029;-78
2021/03/20 16:36:38;;;;;;;5.53;2.50;;;5.80;89.70;;;;;;20861160;28;20041;-77
2021/03/20 16:46:40;;;;;;;5.65;2.63;;;5.00;93.20;;;;;;20875452;28;20026;-78
2021/03/20 16:56:41;;;;;;;7.43;3.03;;;5.00;92.70;;;;;;20789111;28;20041;-78
2021/03/20 17:06:43;;;;;;;4.07;2.30;;;4.50;93.40;;;;;;20856750;28;20087;-78
2021/03/20 17:16:44;;;;;;;3.40;2.22;;;4.40;95.10;;;;;;20871772;28;20041;-78
2021/03/20 17:26:45;;;;;;;29.70;12.75;;;3.80;98.30;;;;;;20854003;28;20065;-78
2021/03/20 17:36:46;;;;;;;5.90;3.85;;;3.20;99.90;;;;;;20862926;28;20037;-76
2021/03/20 17:46:47;;;;;;;11.17;3.97;;;2.90;99.90;;;;;;20873285;28;20040;-76
2021/03/20 17:56:49;;;;;;;26.70;9.40;;;2.90;99.90;;;;;;20894567;28;20755;-77
2021/03/20 18:06:50;;;;;;;12.75;7.20;;;2.50;99.90;;;;;;20898106;28;20630;-77
2021/03/20 18:16:51;;;;;;;5.97;3.27;;;2.40;99.90;;;;;;20876506;28;20041;-77
2021/03/20 18:26:52;;;;;;;22.85;8.15;;;2.30;99.90;;;;;;20888439;28;20294;-77
2021/03/20 18:36:52;;;;;;;10.27;6.32;;;2.50;99.90;;;;;;20872668;28;20086;-76
2021/03/20 18:46:53;;;;;;;15.45;6.10;;;2.10;99.90;;;;;;20902784;23;20049;-77
2021/03/20 18:56:54;;;;;;;;;;;1.70;99.90;;;;;;20912525;28;20037;-78
2021/03/20 19:06:55;;;;;;;12.57;7.78;;;1.80;99.90;;;;;;20873803;28;20298;-78
2021/03/20 19:16:55;;;;;;;;;;;1.80;99.90;;;;;;20918594;28;20068;-77
2021/03/20 19:26:56;;;;;;;13.10;7.40;;;1.70;99.90;;;;;;20864847;28;19917;-77
2021/03/20 19:36:57;;;;;;;;;;;1.40;99.90;;;;;;20887968;28;20317;-77
2021/03/20 19:46:58;;;;;;;27.70;10.40;;;1.40;99.90;;;;;;20874169;28;19921;-77
2021/03/20 19:56:59;;;;;;;;;;;1.40;99.90;;;;;;20924610;28;20032;-77
2021/03/20 20:07:00;;;;;;;12.05;5.45;;;1.50;99.90;;;;;;20919305;28;19912;-76
2021/03/20 20:17:01;;;;;;;;;;;1.40;99.90;;;;;;20954818;28;20143;-77
2021/03/20 20:27:03;;;;;;;7.82;4.60;;;1.30;99.90;;;;;;20920360;28;20348;-77
2021/03/20 20:37:04;;;;;;;6.43;3.45;;;1.40;99.90;;;;;;20878794;28;20025;-77
2021/03/20 20:47:07;;;;;;;7.57;3.33;;;1.50;99.90;;;;;;20882595;28;20055;-77
2021/03/20 20:57:08;;;;;;;6.22;3.10;;;1.50;99.90;;;;;;20883509;28;20021;-76
2021/03/20 21:07:10;;;;;;;11.75;3.97;;;1.00;99.90;;;;;;20865654;28;20103;-77
2021/03/20 21:17:11;;;;;;;6.00;3.88;;;0.80;99.90;;;;;;20848782;28;20021;-76
2021/03/20 21:27:11;;;;;;;7.18;3.83;;;0.70;99.90;;;;;;20869074;28;20036;-76
2021/03/20 21:37:12;;;;;;;7.90;4.15;;;0.90;99.90;;;;;;20871252;28;20155;-76
2021/03/20 21:47:13;;;;;;;7.60;3.58;;;0.80;99.90;;;;;;21474658;23;20453;-75
2021/03/20 21:57:14;;;;;;;6.03;3.60;;;0.80;99.90;;;;;;20874721;28;20052;-76
2021/03/20 22:07:15;;;;;;;8.23;4.28;;;0.80;99.90;;;;;;20875394;28;20112;-75
2021/03/20 22:17:16;;;;;;;9.48;3.67;;;0.90;99.90;;;;;;20843490;28;20029;-76
2021/03/20 22:27:17;;;;;;;;;;;0.90;99.90;;;;;;20887738;28;20116;-77
2021/03/20 22:37:17;;;;;;;12.73;6.68;;;1.00;99.90;;;;;;20877217;28;19921;-77
2021/03/20 22:47:18;;;;;;;;;;;1.00;99.90;;;;;;20879820;28;20043;-75
2021/03/20 22:57:19;;;;;;;8.77;4.07;;;0.90;99.90;;;;;;20872848;28;19917;-76
2021/03/20 23:07:20;;;;;;;;;;;0.90;99.90;;;;;;20882560;28;20041;-75
2021/03/20 23:17:21;;;;;;;9.45;4.28;;;1.00;99.90;;;;;;20820566;28;19921;-76
2021/03/20 23:27:22;;;;;;;;;;;1.10;99.90;;;;;;20841144;28;20394;-76
2021/03/20 23:37:22;;;;;;;15.13;6.05;;;1.10;99.90;;;;;;20839032;28;19924;-76
2021/03/20 23:47:23;;;;;;;;;;;1.00;99.90;;;;;;20841320;28;20490;-76
2021/03/20 23:57:24;;;;;;;10.82;6.35;;;0.90;99.90;;;;;;20868927;28;19920;-77
